NCAR-RAP Real-Time Weather Data

Output produced by METARs form (06 May 2021  15:53 UTC)
found at http://weather.rap.ucar.edu/surface/
 
KABE 061451Z 32010G17KT 10SM FEW047 13/03 A3001 RMK AO2 SLP163 T01330028 53003
KABE 061351Z 36009KT 10SM CLR 12/02 A3001 RMK AO2 SLP161 T01220022
KABE 061251Z 36014G19KT 10SM SCT041 12/02 A3000 RMK AO2 SLP161 T01170022
KABE 061151Z 31008KT 10SM OVC041 11/03 A3000 RMK AO2 SLP160 70029 T01060033 10106 20078 53024 $
KABE 061051Z 30004KT 10SM SCT043 OVC050 09/03 A2998 RMK AO2 SLP152 T00890033 $
KABE 060951Z 30005KT 10SM BKN039 BKN049 08/03 A2995 RMK AO2 SLP142 T00830033 $
KABE 060851Z 29005KT 10SM OVC042 09/03 A2993 RMK AO2 SLP135 T00890033 53007 $
KABE 060751Z 30007KT 10SM BKN038 BKN045 09/03 A2992 RMK AO2 SLP132 T00890033 $
KABE 060651Z 27007KT 10SM SCT040 SCT060 09/03 A2990 RMK AO2 SLP126 T00890033 $
KABE 060551Z AUTO 31007G15KT 10SM FEW060 10/03 A2991 RMK AO2 SLP128 T01000028 10133 20100 50006 $
KABE 060451Z AUTO 32012G18KT 10SM CLR 11/03 A2991 RMK AO2 SLP129 T01060033 401940100 $
KABE 060351Z 30005KT 10SM SCT060 11/04 A2990 RMK AO2 SLP126 T01110039 $
KABE 060251Z 33008KT 10SM BKN060 12/05 A2989 RMK AO2 SLP122 T01170050 51022 $
KABE 060151Z 33010G17KT 10SM FEW043 BKN055 12/06 A2988 RMK AO2 SLP120 T01220056 $
KABE 060051Z 32008KT 10SM SCT042 OVC049 13/08 A2986 RMK AO2 SLP110 T01330078 $